sensor_id;sensor_type;location;lat;lon;timestamp;temperature;humidity
52387;DHT22;38317;53.084;6.960;2022-07-25T00:00:06;21.90;99.90
52387;DHT22;38317;53.084;6.960;2022-07-25T00:02:34;21.90;99.90
52387;DHT22;38317;53.084;6.960;2022-07-25T00:05:00;21.90;99.90
52387;DHT22;38317;53.084;6.960;2022-07-25T00:07:26;21.90;99.90
52387;DHT22;38317;53.084;6.960;2022-07-25T00:09:52;21.90;99.90
52387;DHT22;38317;53.084;6.960;2022-07-25T00:12:18;21.80;99.90
52387;DHT22;38317;53.084;6.960;2022-07-25T00:14:44;21.80;99.90
52387;DHT22;38317;53.084;6.960;2022-07-25T00:17:10;21.80;99.90
52387;DHT22;38317;53.084;6.960;2022-07-25T00:19:36;21.70;99.90
52387;DHT22;38317;53.084;6.960;2022-07-25T00:22:02;21.70;99.90
52387;DHT22;38317;53.084;6.960;2022-07-25T00:24:28;21.60;99.90
52387;DHT22;38317;53.084;6.960;2022-07-25T00:26:53;21.60;99.90
52387;DHT22;38317;53.084;6.960;2022-07-25T00:29:19;21.60;99.90
52387;DHT22;38317;53.084;6.960;2022-07-25T00:31:45;21.60;99.90
52387;DHT22;38317;53.084;6.960;2022-07-25T00:34:11;21.60;99.90
52387;DHT22;38317;53.084;6.960;2022-07-25T00:36:37;21.50;99.90
52387;DHT22;38317;53.084;6.960;2022-07-25T00:39:03;21.50;99.90
52387;DHT22;38317;53.084;6.960;2022-07-25T00:41:29;21.50;99.90
52387;DHT22;38317;53.084;6.960;2022-07-25T00:43:55;21.50;99.90
52387;DHT22;38317;53.084;6.960;2022-07-25T00:46:22;21.50;99.90
52387;DHT22;38317;53.084;6.960;2022-07-25T00:48:48;21.50;99.90
52387;DHT22;38317;53.084;6.960;2022-07-25T00:51:14;21.40;99.90
52387;DHT22;38317;53.084;6.960;2022-07-25T00:53:41;21.50;99.90
52387;DHT22;38317;53.084;6.960;2022-07-25T00:56:07;21.40;99.90
52387;DHT22;38317;53.084;6.960;2022-07-25T00:58:33;21.40;99.90
52387;DHT22;38317;53.084;6.960;2022-07-25T01:00:59;21.40;99.90
52387;DHT22;38317;53.084;6.960;2022-07-25T01:03:25;21.40;99.90
52387;DHT22;38317;53.084;6.960;2022-07-25T01:05:51;21.30;99.90
52387;DHT22;38317;53.084;6.960;2022-07-25T01:08:18;21.30;99.90
52387;DHT22;38317;53.084;6.960;2022-07-25T01:10:45;21.30;99.90
52387;DHT22;38317;53.084;6.960;2022-07-25T01:13:12;21.30;99.90
52387;DHT22;38317;53.084;6.960;2022-07-25T01:15:38;21.30;99.90
52387;DHT22;38317;53.084;6.960;2022-07-25T01:18:03;21.30;99.90
52387;DHT22;38317;53.084;6.960;2022-07-25T01:20:31;21.20;99.90
52387;DHT22;38317;53.084;6.960;2022-07-25T01:22:57;21.20;99.90
52387;DHT22;38317;53.084;6.960;2022-07-25T01:25:24;21.20;99.90
52387;DHT22;38317;53.084;6.960;2022-07-25T01:27:50;21.20;99.90
52387;DHT22;38317;53.084;6.960;2022-07-25T01:30:18;21.20;99.90
52387;DHT22;38317;53.084;6.960;2022-07-25T01:32:45;21.10;99.90
52387;DHT22;38317;53.084;6.960;2022-07-25T01:35:12;21.10;99.90
52387;DHT22;38317;53.084;6.960;2022-07-25T01:37:38;21.10;99.90
52387;DHT22;38317;53.084;6.960;2022-07-25T01:40:05;21.10;99.90
52387;DHT22;38317;53.084;6.960;2022-07-25T01:42:31;21.00;99.90
52387;DHT22;38317;53.084;6.960;2022-07-25T01:44:57;21.10;99.90
52387;DHT22;38317;53.084;6.960;2022-07-25T01:47:23;21.00;99.90
52387;DHT22;38317;53.084;6.960;2022-07-25T01:49:49;21.00;99.90
52387;DHT22;38317;53.084;6.960;2022-07-25T01:52:14;21.00;99.90
52387;DHT22;38317;53.084;6.960;2022-07-25T01:54:40;21.00;99.90
52387;DHT22;38317;53.084;6.960;2022-07-25T01:57:06;21.00;99.90
52387;DHT22;38317;53.084;6.960;2022-07-25T01:59:35;21.00;99.90
52387;DHT22;38317;53.084;6.960;2022-07-25T02:02:01;20.90;99.90
52387;DHT22;38317;53.084;6.960;2022-07-25T02:04:27;20.90;99.90
52387;DHT22;38317;53.084;6.960;2022-07-25T02:06:52;20.90;99.90
52387;DHT22;38317;53.084;6.960;2022-07-25T02:09:18;20.90;99.90
52387;DHT22;38317;53.084;6.960;2022-07-25T02:11:44;20.90;99.90
52387;DHT22;38317;53.084;6.960;2022-07-25T02:14:09;20.90;99.90
52387;DHT22;38317;53.084;6.960;2022-07-25T02:16:35;20.80;99.90
52387;DHT22;38317;53.084;6.960;2022-07-25T02:19:01;20.80;99.90
52387;DHT22;38317;53.084;6.960;2022-07-25T02:21:27;20.80;99.90
52387;DHT22;38317;53.084;6.960;2022-07-25T02:23:53;20.80;99.90
52387;DHT22;38317;53.084;6.960;2022-07-25T02:26:19;20.80;99.90
52387;DHT22;38317;53.084;6.960;2022-07-25T02:28:45;20.80;99.90
52387;DHT22;38317;53.084;6.960;2022-07-25T02:31:10;20.70;99.90
52387;DHT22;38317;53.084;6.960;2022-07-25T02:33:36;20.70;99.90
52387;DHT22;38317;53.084;6.960;2022-07-25T02:36:02;20.70;99.90
52387;DHT22;38317;53.084;6.960;2022-07-25T02:38:28;20.70;99.90
52387;DHT22;38317;53.084;6.960;2022-07-25T02:40:54;20.70;99.90
52387;DHT22;38317;53.084;6.960;2022-07-25T02:43:20;20.60;99.90
52387;DHT22;38317;53.084;6.960;2022-07-25T02:45:46;20.60;99.90
52387;DHT22;38317;53.084;6.960;2022-07-25T02:48:11;20.60;99.90
52387;DHT22;38317;53.084;6.960;2022-07-25T02:50:38;20.60;99.90
52387;DHT22;38317;53.084;6.960;2022-07-25T02:53:04;20.50;99.90
52387;DHT22;38317;53.084;6.960;2022-07-25T02:55:32;20.50;99.90
52387;DHT22;38317;53.084;6.960;2022-07-25T02:57:58;20.50;99.90
52387;DHT22;38317;53.084;6.960;2022-07-25T03:00:24;20.50;99.90
52387;DHT22;38317;53.084;6.960;2022-07-25T03:02:50;20.50;99.90
52387;DHT22;38317;53.084;6.960;2022-07-25T03:05:16;20.40;99.90
52387;DHT22;38317;53.084;6.960;2022-07-25T03:07:44;20.40;99.90
52387;DHT22;38317;53.084;6.960;2022-07-25T03:10:11;20.40;99.90
52387;DHT22;38317;53.084;6.960;2022-07-25T03:12:38;20.40;99.90
52387;DHT22;38317;53.084;6.960;2022-07-25T03:15:04;20.40;99.90
52387;DHT22;38317;53.084;6.960;2022-07-25T03:17:30;20.30;99.90
52387;DHT22;38317;53.084;6.960;2022-07-25T03:19:56;20.30;99.90
52387;DHT22;38317;53.084;6.960;2022-07-25T03:22:25;20.30;99.90
52387;DHT22;38317;53.084;6.960;2022-07-25T03:24:51;20.30;99.90
52387;DHT22;38317;53.084;6.960;2022-07-25T03:27:18;20.30;99.90
52387;DHT22;38317;53.084;6.960;2022-07-25T03:29:44;20.30;99.90
52387;DHT22;38317;53.084;6.960;2022-07-25T03:32:10;20.20;99.90
52387;DHT22;38317;53.084;6.960;2022-07-25T03:34:36;20.20;99.90
52387;DHT22;38317;53.084;6.960;2022-07-25T03:37:02;20.20;99.90
52387;DHT22;38317;53.084;6.960;2022-07-25T03:39:28;20.20;99.90
52387;DHT22;38317;53.084;6.960;2022-07-25T03:41:55;20.20;99.90
52387;DHT22;38317;53.084;6.960;2022-07-25T03:44:21;20.20;99.90
52387;DHT22;38317;53.084;6.960;2022-07-25T03:46:47;20.20;99.90
52387;DHT22;38317;53.084;6.960;2022-07-25T03:49:13;20.20;99.90
52387;DHT22;38317;53.084;6.960;2022-07-25T03:51:39;20.20;99.90
52387;DHT22;38317;53.084;6.960;2022-07-25T03:54:05;20.20;99.90
52387;DHT22;38317;53.084;6.960;2022-07-25T03:56:47;20.20;99.90
52387;DHT22;38317;53.084;6.960;2022-07-25T03:59:19;20.10;99.90
52387;DHT22;38317;53.084;6.960;2022-07-25T04:01:46;20.10;99.90
52387;DHT22;38317;53.084;6.960;2022-07-25T04:04:13;20.10;99.90
52387;DHT22;38317;53.084;6.960;2022-07-25T04:06:39;20.10;99.90
52387;DHT22;38317;53.084;6.960;2022-07-25T04:09:07;20.10;99.90
52387;DHT22;38317;53.084;6.960;2022-07-25T04:11:32;20.10;99.90
52387;DHT22;38317;53.084;6.960;2022-07-25T04:14:00;20.00;99.90
52387;DHT22;38317;53.084;6.960;2022-07-25T04:16:28;20.10;99.90
52387;DHT22;38317;53.084;6.960;2022-07-25T04:18:54;20.10;99.90
52387;DHT22;38317;53.084;6.960;2022-07-25T04:21:20;20.10;99.90
52387;DHT22;38317;53.084;6.960;2022-07-25T04:23:47;20.10;99.90
52387;DHT22;38317;53.084;6.960;2022-07-25T04:26:13;20.10;99.90
52387;DHT22;38317;53.084;6.960;2022-07-25T04:28:38;20.00;99.90
52387;DHT22;38317;53.084;6.960;2022-07-25T04:31:04;20.00;99.90
52387;DHT22;38317;53.084;6.960;2022-07-25T04:33:30;20.10;99.90
52387;DHT22;38317;53.084;6.960;2022-07-25T04:35:56;20.00;99.90
52387;DHT22;38317;53.084;6.960;2022-07-25T04:38:21;20.00;99.90
52387;DHT22;38317;53.084;6.960;2022-07-25T04:40:47;20.10;99.90
52387;DHT22;38317;53.084;6.960;2022-07-25T04:43:13;20.10;99.90
52387;DHT22;38317;53.084;6.960;2022-07-25T04:45:39;20.10;99.90
52387;DHT22;38317;53.084;6.960;2022-07-25T04:48:05;20.10;99.90
52387;DHT22;38317;53.084;6.960;2022-07-25T04:50:31;20.10;99.90
52387;DHT22;38317;53.084;6.960;2022-07-25T04:52:57;20.10;99.90
52387;DHT22;38317;53.084;6.960;2022-07-25T04:55:22;20.20;99.90
52387;DHT22;38317;53.084;6.960;2022-07-25T04:57:48;20.20;99.90
52387;DHT22;38317;53.084;6.960;2022-07-25T05:00:14;20.20;99.90
52387;DHT22;38317;53.084;6.960;2022-07-25T05:02:40;20.30;99.90
52387;DHT22;38317;53.084;6.960;2022-07-25T05:05:07;20.30;99.90
52387;DHT22;38317;53.084;6.960;2022-07-25T05:07:34;20.40;99.90
52387;DHT22;38317;53.084;6.960;2022-07-25T05:10:00;20.40;99.90
52387;DHT22;38317;53.084;6.960;2022-07-25T05:12:26;20.40;99.90
52387;DHT22;38317;53.084;6.960;2022-07-25T05:14:51;20.50;99.90
52387;DHT22;38317;53.084;6.960;2022-07-25T05:17:18;20.50;99.90
52387;DHT22;38317;53.084;6.960;2022-07-25T05:19:44;20.50;99.90
52387;DHT22;38317;53.084;6.960;2022-07-25T05:22:10;20.60;99.90
52387;DHT22;38317;53.084;6.960;2022-07-25T05:24:36;20.60;99.90
52387;DHT22;38317;53.084;6.960;2022-07-25T05:27:03;20.70;99.90
52387;DHT22;38317;53.084;6.960;2022-07-25T05:29:30;20.80;99.90
52387;DHT22;38317;53.084;6.960;2022-07-25T05:31:56;20.80;99.90
52387;DHT22;38317;53.084;6.960;2022-07-25T05:34:22;20.90;99.90
52387;DHT22;38317;53.084;6.960;2022-07-25T05:36:47;20.90;99.90
52387;DHT22;38317;53.084;6.960;2022-07-25T05:39:13;21.00;99.90
52387;DHT22;38317;53.084;6.960;2022-07-25T05:41:39;21.10;99.90
52387;DHT22;38317;53.084;6.960;2022-07-25T05:44:05;21.20;99.90
52387;DHT22;38317;53.084;6.960;2022-07-25T05:46:34;21.20;99.90
52387;DHT22;38317;53.084;6.960;2022-07-25T05:49:00;21.30;99.90
52387;DHT22;38317;53.084;6.960;2022-07-25T05:51:26;21.30;99.90
52387;DHT22;38317;53.084;6.960;2022-07-25T05:53:52;21.40;99.90
52387;DHT22;38317;53.084;6.960;2022-07-25T05:56:18;21.50;99.90
52387;DHT22;38317;53.084;6.960;2022-07-25T05:58:44;21.50;99.90
52387;DHT22;38317;53.084;6.960;2022-07-25T06:01:14;21.60;99.90
52387;DHT22;38317;53.084;6.960;2022-07-25T06:03:40;21.60;99.90
52387;DHT22;38317;53.084;6.960;2022-07-25T06:06:07;21.70;99.90
52387;DHT22;38317;53.084;6.960;2022-07-25T06:08:34;21.70;99.90
52387;DHT22;38317;53.084;6.960;2022-07-25T06:11:00;21.80;99.90
52387;DHT22;38317;53.084;6.960;2022-07-25T06:13:26;21.80;99.90
52387;DHT22;38317;53.084;6.960;2022-07-25T06:15:52;21.90;99.90
52387;DHT22;38317;53.084;6.960;2022-07-25T06:18:18;21.90;99.90
52387;DHT22;38317;53.084;6.960;2022-07-25T06:20:43;22.00;99.90
52387;DHT22;38317;53.084;6.960;2022-07-25T06:23:10;22.00;99.90
52387;DHT22;38317;53.084;6.960;2022-07-25T06:25:35;22.00;99.90
52387;DHT22;38317;53.084;6.960;2022-07-25T06:28:01;22.10;99.90
52387;DHT22;38317;53.084;6.960;2022-07-25T06:30:27;22.10;99.90
52387;DHT22;38317;53.084;6.960;2022-07-25T06:32:53;22.10;99.90
52387;DHT22;38317;53.084;6.960;2022-07-25T06:35:19;22.10;99.90
52387;DHT22;38317;53.084;6.960;2022-07-25T06:37:45;22.20;99.90
52387;DHT22;38317;53.084;6.960;2022-07-25T06:40:11;22.30;99.90
52387;DHT22;38317;53.084;6.960;2022-07-25T06:42:41;22.40;99.90
52387;DHT22;38317;53.084;6.960;2022-07-25T06:45:08;22.50;99.90
52387;DHT22;38317;53.084;6.960;2022-07-25T06:47:36;22.50;99.90
52387;DHT22;38317;53.084;6.960;2022-07-25T06:50:04;22.60;99.90
52387;DHT22;38317;53.084;6.960;2022-07-25T06:52:29;22.60;99.90
52387;DHT22;38317;53.084;6.960;2022-07-25T06:54:55;22.70;99.90
52387;DHT22;38317;53.084;6.960;2022-07-25T06:57:21;22.70;99.90
52387;DHT22;38317;53.084;6.960;2022-07-25T06:59:47;22.80;99.90
52387;DHT22;38317;53.084;6.960;2022-07-25T07:02:12;22.80;99.90
52387;DHT22;38317;53.084;6.960;2022-07-25T07:04:38;22.90;99.90
52387;DHT22;38317;53.084;6.960;2022-07-25T07:07:04;22.90;99.90
52387;DHT22;38317;53.084;6.960;2022-07-25T07:09:30;22.90;99.90
52387;DHT22;38317;53.084;6.960;2022-07-25T07:11:56;23.00;99.90
52387;DHT22;38317;53.084;6.960;2022-07-25T07:14:21;23.00;99.90
52387;DHT22;38317;53.084;6.960;2022-07-25T07:16:47;23.10;99.90
52387;DHT22;38317;53.084;6.960;2022-07-25T07:19:13;23.10;99.90
52387;DHT22;38317;53.084;6.960;2022-07-25T07:21:40;23.20;99.90
52387;DHT22;38317;53.084;6.960;2022-07-25T07:24:06;23.30;99.90
52387;DHT22;38317;53.084;6.960;2022-07-25T07:26:32;23.40;99.90
52387;DHT22;38317;53.084;6.960;2022-07-25T07:28:58;23.50;99.90
52387;DHT22;38317;53.084;6.960;2022-07-25T07:31:24;23.60;99.90
52387;DHT22;38317;53.084;6.960;2022-07-25T07:33:50;23.80;99.90
52387;DHT22;38317;53.084;6.960;2022-07-25T07:36:16;23.90;99.90
52387;DHT22;38317;53.084;6.960;2022-07-25T07:38:42;24.00;99.90
52387;DHT22;38317;53.084;6.960;2022-07-25T07:41:09;24.20;99.90
52387;DHT22;38317;53.084;6.960;2022-07-25T07:43:35;24.40;99.90
52387;DHT22;38317;53.084;6.960;2022-07-25T07:46:01;24.60;99.90
52387;DHT22;38317;53.084;6.960;2022-07-25T07:48:30;24.80;99.90
52387;DHT22;38317;53.084;6.960;2022-07-25T07:50:58;24.80;99.90
52387;DHT22;38317;53.084;6.960;2022-07-25T07:53:24;24.90;99.90
52387;DHT22;38317;53.084;6.960;2022-07-25T07:56:10;25.00;99.90
52387;DHT22;38317;53.084;6.960;2022-07-25T07:58:36;25.00;99.90
52387;DHT22;38317;53.084;6.960;2022-07-25T08:01:02;25.10;99.90
52387;DHT22;38317;53.084;6.960;2022-07-25T08:03:28;25.30;99.90
52387;DHT22;38317;53.084;6.960;2022-07-25T08:05:54;25.40;99.90
52387;DHT22;38317;53.084;6.960;2022-07-25T08:08:19;25.50;99.90
52387;DHT22;38317;53.084;6.960;2022-07-25T08:10:47;25.60;99.90
52387;DHT22;38317;53.084;6.960;2022-07-25T08:15:38;25.80;99.90
52387;DHT22;38317;53.084;6.960;2022-07-25T08:18:04;25.90;99.90
52387;DHT22;38317;53.084;6.960;2022-07-25T08:20:30;25.90;99.90
52387;DHT22;38317;53.084;6.960;2022-07-25T08:22:56;25.90;99.90
52387;DHT22;38317;53.084;6.960;2022-07-25T08:25:22;26.10;99.90
52387;DHT22;38317;53.084;6.960;2022-07-25T08:27:48;26.30;99.90
52387;DHT22;38317;53.084;6.960;2022-07-25T08:30:15;26.70;99.90
52387;DHT22;38317;53.084;6.960;2022-07-25T08:32:49;26.80;99.90
52387;DHT22;38317;53.084;6.960;2022-07-25T08:35:17;27.00;99.90
52387;DHT22;38317;53.084;6.960;2022-07-25T08:37:43;27.00;99.90
52387;DHT22;38317;53.084;6.960;2022-07-25T08:40:13;26.90;99.90
52387;DHT22;38317;53.084;6.960;2022-07-25T08:42:39;26.60;99.90
52387;DHT22;38317;53.084;6.960;2022-07-25T08:45:07;26.30;99.90
52387;DHT22;38317;53.084;6.960;2022-07-25T08:47:35;26.10;99.90
52387;DHT22;38317;53.084;6.960;2022-07-25T08:50:05;26.00;99.90
52387;DHT22;38317;53.084;6.960;2022-07-25T08:52:32;26.10;99.90
52387;DHT22;38317;53.084;6.960;2022-07-25T08:55:10;26.40;99.90
52387;DHT22;38317;53.084;6.960;2022-07-25T08:57:39;26.60;99.90
52387;DHT22;38317;53.084;6.960;2022-07-25T09:00:09;26.60;99.90
52387;DHT22;38317;53.084;6.960;2022-07-25T09:02:38;26.60;99.90
52387;DHT22;38317;53.084;6.960;2022-07-25T09:05:04;26.40;99.90
52387;DHT22;38317;53.084;6.960;2022-07-25T09:07:33;26.40;99.90
52387;DHT22;38317;53.084;6.960;2022-07-25T09:10:13;26.40;99.90
52387;DHT22;38317;53.084;6.960;2022-07-25T09:12:40;26.20;99.90
52387;DHT22;38317;53.084;6.960;2022-07-25T09:15:07;26.00;99.90
52387;DHT22;38317;53.084;6.960;2022-07-25T09:17:35;25.80;99.90
52387;DHT22;38317;53.084;6.960;2022-07-25T09:20:01;25.70;99.90
52387;DHT22;38317;53.084;6.960;2022-07-25T09:22:27;25.50;99.90
52387;DHT22;38317;53.084;6.960;2022-07-25T09:24:54;25.40;99.90
52387;DHT22;38317;53.084;6.960;2022-07-25T09:27:20;25.20;99.90
52387;DHT22;38317;53.084;6.960;2022-07-25T09:29:46;25.10;99.90
52387;DHT22;38317;53.084;6.960;2022-07-25T09:32:20;25.10;99.90
52387;DHT22;38317;53.084;6.960;2022-07-25T09:34:48;25.10;99.90
52387;DHT22;38317;53.084;6.960;2022-07-25T09:37:16;25.00;99.90
52387;DHT22;38317;53.084;6.960;2022-07-25T09:39:48;25.00;99.90
52387;DHT22;38317;53.084;6.960;2022-07-25T09:44:57;24.90;99.90
52387;DHT22;38317;53.084;6.960;2022-07-25T09:47:23;24.90;99.90
52387;DHT22;38317;53.084;6.960;2022-07-25T09:49:49;24.90;99.90
52387;DHT22;38317;53.084;6.960;2022-07-25T09:52:15;25.10;99.90
52387;DHT22;38317;53.084;6.960;2022-07-25T09:54:42;25.20;99.90
52387;DHT22;38317;53.084;6.960;2022-07-25T09:57:08;25.40;99.90
52387;DHT22;38317;53.084;6.960;2022-07-25T09:59:34;25.60;99.90
52387;DHT22;38317;53.084;6.960;2022-07-25T10:05:27;25.90;99.90
52387;DHT22;38317;53.084;6.960;2022-07-25T10:07:54;26.00;99.90
52387;DHT22;38317;53.084;6.960;2022-07-25T10:13:00;25.90;99.90
52387;DHT22;38317;53.084;6.960;2022-07-25T10:15:38;25.90;99.90
52387;DHT22;38317;53.084;6.960;2022-07-25T10:18:04;25.80;99.90
52387;DHT22;38317;53.084;6.960;2022-07-25T10:20:33;25.90;99.90
52387;DHT22;38317;53.084;6.960;2022-07-25T10:22:59;26.00;99.90
52387;DHT22;38317;53.084;6.960;2022-07-25T10:25:25;26.10;99.90
52387;DHT22;38317;53.084;6.960;2022-07-25T10:27:53;26.10;99.90
52387;DHT22;38317;53.084;6.960;2022-07-25T10:30:38;26.00;99.90
52387;DHT22;38317;53.084;6.960;2022-07-25T10:33:11;25.70;99.90
52387;DHT22;38317;53.084;6.960;2022-07-25T10:35:38;25.50;99.90
52387;DHT22;38317;53.084;6.960;2022-07-25T10:38:05;25.40;99.90
52387;DHT22;38317;53.084;6.960;2022-07-25T10:40:36;25.40;99.90
52387;DHT22;38317;53.084;6.960;2022-07-25T10:43:11;25.40;99.90
52387;DHT22;38317;53.084;6.960;2022-07-25T10:46:10;25.50;99.90
52387;DHT22;38317;53.084;6.960;2022-07-25T10:48:37;25.60;99.90
52387;DHT22;38317;53.084;6.960;2022-07-25T10:51:12;25.70;99.90
52387;DHT22;38317;53.084;6.960;2022-07-25T10:53:48;25.80;99.90
52387;DHT22;38317;53.084;6.960;2022-07-25T10:56:16;26.00;99.90
52387;DHT22;38317;53.084;6.960;2022-07-25T10:58:53;26.20;99.90
52387;DHT22;38317;53.084;6.960;2022-07-25T11:01:27;26.40;99.90
52387;DHT22;38317;53.084;6.960;2022-07-25T11:04:01;26.40;99.90
52387;DHT22;38317;53.084;6.960;2022-07-25T11:06:35;26.30;99.90
52387;DHT22;38317;53.084;6.960;2022-07-25T11:09:15;26.10;99.90
52387;DHT22;38317;53.084;6.960;2022-07-25T11:11:43;25.90;99.90
52387;DHT22;38317;53.084;6.960;2022-07-25T11:14:36;25.80;99.90
52387;DHT22;38317;53.084;6.960;2022-07-25T11:17:16;25.60;99.90
52387;DHT22;38317;53.084;6.960;2022-07-25T11:19:57;25.40;99.90
52387;DHT22;38317;53.084;6.960;2022-07-25T11:22:24;25.40;99.90
52387;DHT22;38317;53.084;6.960;2022-07-25T11:24:51;25.20;99.90
52387;DHT22;38317;53.084;6.960;2022-07-25T11:29:47;25.00;99.90
52387;DHT22;38317;53.084;6.960;2022-07-25T11:32:13;24.80;99.90
52387;DHT22;38317;53.084;6.960;2022-07-25T11:34:42;24.60;99.90
52387;DHT22;38317;53.084;6.960;2022-07-25T11:37:10;24.30;99.90
52387;DHT22;38317;53.084;6.960;2022-07-25T11:39:38;24.10;99.90
52387;DHT22;38317;53.084;6.960;2022-07-25T11:42:14;24.00;99.90
52387;DHT22;38317;53.084;6.960;2022-07-25T11:44:46;24.00;99.90
52387;DHT22;38317;53.084;6.960;2022-07-25T11:47:25;24.00;99.90
52387;DHT22;38317;53.084;6.960;2022-07-25T11:49:53;24.10;99.90
52387;DHT22;38317;53.084;6.960;2022-07-25T11:54:57;24.80;99.90
52387;DHT22;38317;53.084;6.960;2022-07-25T11:57:25;24.90;99.90
52387;DHT22;38317;53.084;6.960;2022-07-25T11:59:52;24.90;99.90
52387;DHT22;38317;53.084;6.960;2022-07-25T12:02:31;24.80;99.90
52387;DHT22;38317;53.084;6.960;2022-07-25T12:05:00;24.80;99.90
52387;DHT22;38317;53.084;6.960;2022-07-25T12:10:08;24.70;99.90
52387;DHT22;38317;53.084;6.960;2022-07-25T12:15:14;24.60;99.90
52387;DHT22;38317;53.084;6.960;2022-07-25T12:17:40;24.50;99.90
52387;DHT22;38317;53.084;6.960;2022-07-25T12:20:14;24.50;99.90
52387;DHT22;38317;53.084;6.960;2022-07-25T12:22:40;24.40;99.90
52387;DHT22;38317;53.084;6.960;2022-07-25T12:25:06;24.40;99.90
52387;DHT22;38317;53.084;6.960;2022-07-25T12:27:32;24.30;99.90
52387;DHT22;38317;53.084;6.960;2022-07-25T12:29:58;24.30;99.90
52387;DHT22;38317;53.084;6.960;2022-07-25T12:32:23;24.30;99.90
52387;DHT22;38317;53.084;6.960;2022-07-25T12:34:49;24.30;99.90
52387;DHT22;38317;53.084;6.960;2022-07-25T12:37:15;24.40;99.90
52387;DHT22;38317;53.084;6.960;2022-07-25T12:39:41;24.50;99.90
52387;DHT22;38317;53.084;6.960;2022-07-25T12:42:07;24.60;99.90
52387;DHT22;38317;53.084;6.960;2022-07-25T12:44:33;24.50;99.90
52387;DHT22;38317;53.084;6.960;2022-07-25T12:46:59;24.40;99.90
52387;DHT22;38317;53.084;6.960;2022-07-25T12:49:25;24.20;99.90
52387;DHT22;38317;53.084;6.960;2022-07-25T12:51:51;24.00;99.90
52387;DHT22;38317;53.084;6.960;2022-07-25T12:54:17;24.00;99.90
52387;DHT22;38317;53.084;6.960;2022-07-25T12:56:42;24.00;99.90
52387;DHT22;38317;53.084;6.960;2022-07-25T12:59:08;24.00;99.90
52387;DHT22;38317;53.084;6.960;2022-07-25T13:01:34;24.20;99.90
52387;DHT22;38317;53.084;6.960;2022-07-25T13:03:59;24.30;99.90
52387;DHT22;38317;53.084;6.960;2022-07-25T13:06:25;24.60;99.90
52387;DHT22;38317;53.084;6.960;2022-07-25T13:08:51;24.70;99.90
52387;DHT22;38317;53.084;6.960;2022-07-25T13:11:17;24.60;99.90
52387;DHT22;38317;53.084;6.960;2022-07-25T13:13:42;24.40;99.90
52387;DHT22;38317;53.084;6.960;2022-07-25T13:16:08;24.30;99.90
52387;DHT22;38317;53.084;6.960;2022-07-25T13:18:34;24.10;99.90
52387;DHT22;38317;53.084;6.960;2022-07-25T13:20:59;24.00;99.90
52387;DHT22;38317;53.084;6.960;2022-07-25T13:23:28;24.00;99.90
52387;DHT22;38317;53.084;6.960;2022-07-25T13:25:54;24.00;99.90
52387;DHT22;38317;53.084;6.960;2022-07-25T13:28:19;24.10;99.90
52387;DHT22;38317;53.084;6.960;2022-07-25T13:30:45;24.20;99.90
52387;DHT22;38317;53.084;6.960;2022-07-25T13:33:11;24.20;99.90
52387;DHT22;38317;53.084;6.960;2022-07-25T13:35:37;24.10;99.90
52387;DHT22;38317;53.084;6.960;2022-07-25T13:38:03;24.10;99.90
52387;DHT22;38317;53.084;6.960;2022-07-25T13:40:28;24.20;99.90
52387;DHT22;38317;53.084;6.960;2022-07-25T13:42:54;24.40;99.90
52387;DHT22;38317;53.084;6.960;2022-07-25T13:45:20;24.50;99.90
52387;DHT22;38317;53.084;6.960;2022-07-25T13:47:46;24.50;99.90
52387;DHT22;38317;53.084;6.960;2022-07-25T13:50:11;24.60;99.90
52387;DHT22;38317;53.084;6.960;2022-07-25T13:52:37;24.70;99.90
52387;DHT22;38317;53.084;6.960;2022-07-25T13:55:03;24.70;99.90
52387;DHT22;38317;53.084;6.960;2022-07-25T13:57:31;24.60;99.90
52387;DHT22;38317;53.084;6.960;2022-07-25T13:59:57;24.40;99.90
52387;DHT22;38317;53.084;6.960;2022-07-25T14:02:23;24.20;99.90
52387;DHT22;38317;53.084;6.960;2022-07-25T14:04:49;24.10;99.90
52387;DHT22;38317;53.084;6.960;2022-07-25T14:07:15;23.90;99.90
52387;DHT22;38317;53.084;6.960;2022-07-25T14:09:40;23.90;99.90
52387;DHT22;38317;53.084;6.960;2022-07-25T14:12:06;23.60;99.90
52387;DHT22;38317;53.084;6.960;2022-07-25T14:14:32;23.40;99.90
52387;DHT22;38317;53.084;6.960;2022-07-25T14:16:58;23.30;99.90
52387;DHT22;38317;53.084;6.960;2022-07-25T14:19:23;23.20;99.90
52387;DHT22;38317;53.084;6.960;2022-07-25T14:21:49;23.20;99.90
52387;DHT22;38317;53.084;6.960;2022-07-25T14:24:15;23.20;99.90
52387;DHT22;38317;53.084;6.960;2022-07-25T14:26:41;23.30;99.90
52387;DHT22;38317;53.084;6.960;2022-07-25T14:29:07;23.30;99.90
52387;DHT22;38317;53.084;6.960;2022-07-25T14:31:37;23.30;99.90
52387;DHT22;38317;53.084;6.960;2022-07-25T14:34:02;23.30;99.90
52387;DHT22;38317;53.084;6.960;2022-07-25T14:36:28;23.30;99.90
52387;DHT22;38317;53.084;6.960;2022-07-25T14:38:54;23.50;99.90
52387;DHT22;38317;53.084;6.960;2022-07-25T14:41:20;23.80;99.90
52387;DHT22;38317;53.084;6.960;2022-07-25T14:43:46;24.00;99.90
52387;DHT22;38317;53.084;6.960;2022-07-25T14:46:12;24.20;99.90
52387;DHT22;38317;53.084;6.960;2022-07-25T14:48:38;24.20;99.90
52387;DHT22;38317;53.084;6.960;2022-07-25T14:51:04;24.20;99.90
52387;DHT22;38317;53.084;6.960;2022-07-25T14:53:32;24.40;99.90
52387;DHT22;38317;53.084;6.960;2022-07-25T14:55:58;24.40;99.90
52387;DHT22;38317;53.084;6.960;2022-07-25T14:58:25;24.30;99.90
52387;DHT22;38317;53.084;6.960;2022-07-25T15:00:51;24.20;99.90
52387;DHT22;38317;53.084;6.960;2022-07-25T15:03:17;24.10;99.90
52387;DHT22;38317;53.084;6.960;2022-07-25T15:05:42;24.00;99.90
52387;DHT22;38317;53.084;6.960;2022-07-25T15:08:08;24.00;99.90
52387;DHT22;38317;53.084;6.960;2022-07-25T15:10:37;24.20;99.90
52387;DHT22;38317;53.084;6.960;2022-07-25T15:13:03;24.40;99.90
52387;DHT22;38317;53.084;6.960;2022-07-25T15:15:29;24.30;99.90
52387;DHT22;38317;53.084;6.960;2022-07-25T15:17:54;24.00;99.90
52387;DHT22;38317;53.084;6.960;2022-07-25T15:20:20;23.90;99.90
52387;DHT22;38317;53.084;6.960;2022-07-25T15:22:46;23.90;99.90
52387;DHT22;38317;53.084;6.960;2022-07-25T15:25:12;24.00;99.90
52387;DHT22;38317;53.084;6.960;2022-07-25T15:27:37;24.30;99.90
52387;DHT22;38317;53.084;6.960;2022-07-25T15:30:04;24.50;99.90
52387;DHT22;38317;53.084;6.960;2022-07-25T15:32:30;24.60;99.90
52387;DHT22;38317;53.084;6.960;2022-07-25T15:34:56;24.70;99.90
52387;DHT22;38317;53.084;6.960;2022-07-25T15:37:22;24.50;99.90
52387;DHT22;38317;53.084;6.960;2022-07-25T15:39:48;24.50;99.90
52387;DHT22;38317;53.084;6.960;2022-07-25T15:42:14;24.50;99.90
52387;DHT22;38317;53.084;6.960;2022-07-25T15:44:39;24.30;99.90
52387;DHT22;38317;53.084;6.960;2022-07-25T15:47:06;24.20;99.90
52387;DHT22;38317;53.084;6.960;2022-07-25T15:49:32;24.20;99.90